createdAt,value
2023-01-29T00:01:37.923Z,-0.90
2023-01-29T00:04:06.384Z,-0.90
2023-01-29T00:06:36.030Z,-0.90
2023-01-29T00:09:04.275Z,-0.90
2023-01-29T00:11:32.663Z,-0.80
2023-01-29T00:14:00.898Z,-0.90
2023-01-29T00:16:29.202Z,-0.90
2023-01-29T00:18:57.450Z,-0.90
2023-01-29T00:21:25.800Z,-0.90
2023-01-29T00:23:55.791Z,-0.90
2023-01-29T00:26:24.184Z,-0.90
2023-01-29T00:28:52.437Z,-0.90
2023-01-29T00:31:21.754Z,-0.90
2023-01-29T00:33:50.240Z,-1.00
2023-01-29T00:36:19.247Z,-0.90
2023-01-29T00:38:54.944Z,-1.00
2023-01-29T00:41:56.551Z,-1.00
2023-01-29T00:44:42.613Z,-1.10
2023-01-29T00:47:30.904Z,-1.00
2023-01-29T00:49:59.300Z,-1.00
2023-01-29T00:52:27.606Z,-1.10
2023-01-29T00:54:56.938Z,-1.10
2023-01-29T00:57:27.255Z,-1.10
2023-01-29T00:59:55.516Z,-1.10
2023-01-29T01:02:41.193Z,-1.20
2023-01-29T01:05:14.113Z,-1.20
2023-01-29T01:07:42.504Z,-1.20
2023-01-29T01:10:21.956Z,-1.20
2023-01-29T01:12:53.591Z,-1.20
2023-01-29T01:15:21.892Z,-1.30
2023-01-29T01:17:52.853Z,-1.20
2023-01-29T01:20:21.262Z,-1.30
2023-01-29T01:22:49.580Z,-1.30
2023-01-29T01:25:18.909Z,-1.20
2023-01-29T01:27:47.262Z,-1.40
2023-01-29T01:30:17.797Z,-1.60
2023-01-29T01:32:46.411Z,-1.50
2023-01-29T01:35:14.970Z,-1.40
2023-01-29T01:37:43.317Z,-1.40
2023-01-29T01:40:18.394Z,-1.40
2023-01-29T01:42:48.666Z,-1.50
2023-01-29T01:45:22.259Z,-1.50
2023-01-29T01:47:52.322Z,-1.60
2023-01-29T01:50:21.998Z,-1.50
2023-01-29T01:52:51.770Z,-1.70
2023-01-29T01:55:21.658Z,-1.70
2023-01-29T01:57:51.633Z,-1.60
2023-01-29T02:00:22.062Z,-1.80
2023-01-29T02:03:07.449Z,-1.70
2023-01-29T02:05:52.942Z,-1.60
2023-01-29T02:08:41.056Z,-1.70
2023-01-29T02:11:09.409Z,-1.60
2023-01-29T02:13:37.657Z,-1.60
2023-01-29T02:16:07.612Z,-1.60
2023-01-29T02:18:38.196Z,-1.60
2023-01-29T02:21:14.976Z,-1.60
2023-01-29T02:24:21.359Z,-1.60
2023-01-29T02:26:55.211Z,-1.60
2023-01-29T02:29:28.880Z,-1.70
2023-01-29T02:32:12.698Z,-1.80
2023-01-29T02:35:02.302Z,-1.70
2023-01-29T02:37:36.041Z,-1.80
2023-01-29T02:40:09.856Z,-1.80
2023-01-29T02:42:40.119Z,-1.90
2023-01-29T02:45:11.992Z,-1.80
2023-01-29T02:47:43.511Z,-1.80
2023-01-29T02:50:16.819Z,-1.70
2023-01-29T02:52:50.927Z,-1.70
2023-01-29T02:55:21.533Z,-1.80
2023-01-29T02:57:50.012Z,-1.70
2023-01-29T03:00:20.488Z,-1.80
2023-01-29T03:02:50.626Z,-1.80
2023-01-29T03:05:23.158Z,-1.80
2023-01-29T03:07:53.643Z,-1.80
2023-01-29T03:10:23.187Z,-1.80
2023-01-29T03:12:55.598Z,-1.80
2023-01-29T03:15:27.344Z,-1.90
2023-01-29T03:17:57.002Z,-1.80
2023-01-29T03:20:26.679Z,-1.80
2023-01-29T03:23:01.371Z,-1.80
2023-01-29T03:25:47.069Z,-1.80
2023-01-29T03:28:34.610Z,-1.80
2023-01-29T03:31:23.049Z,-1.90
2023-01-29T03:33:52.523Z,-1.90
2023-01-29T03:36:22.593Z,-1.90
2023-01-29T03:38:50.804Z,-2.00
2023-01-29T03:41:24.397Z,-2.00
2023-01-29T03:43:56.410Z,-2.00
2023-01-29T03:46:29.333Z,-2.00
2023-01-29T03:49:00.270Z,-1.90
2023-01-29T03:51:31.691Z,-2.00
2023-01-29T03:54:05.369Z,-2.10
2023-01-29T03:56:38.676Z,-2.10
2023-01-29T03:59:12.065Z,-2.00
2023-01-29T04:01:43.457Z,-2.10
2023-01-29T04:04:14.640Z,-2.10
2023-01-29T04:06:43.406Z,-2.20
2023-01-29T04:09:13.444Z,-2.10
2023-01-29T04:11:46.549Z,-2.10
2023-01-29T04:14:14.804Z,-2.20
2023-01-29T04:16:51.543Z,-2.30
2023-01-29T04:19:19.767Z,-2.20
2023-01-29T04:21:48.574Z,-2.20
2023-01-29T04:24:16.828Z,-2.10
2023-01-29T04:26:56.811Z,-2.20
2023-01-29T04:29:31.781Z,-2.20
2023-01-29T04:32:04.515Z,-2.10
2023-01-29T04:34:36.224Z,-2.20
2023-01-29T04:37:07.753Z,-2.20
2023-01-29T04:39:40.484Z,-2.20
2023-01-29T04:42:13.592Z,-2.20
2023-01-29T04:44:43.866Z,-2.20
2023-01-29T04:47:19.299Z,-2.20
2023-01-29T04:49:49.298Z,-2.10
2023-01-29T04:52:18.697Z,-2.10
2023-01-29T04:54:54.110Z,-2.10
2023-01-29T04:57:25.554Z,-2.10
2023-01-29T04:59:57.139Z,-2.00
2023-01-29T05:02:27.192Z,-2.10
2023-01-29T05:04:55.499Z,-2.00
2023-01-29T05:07:23.728Z,-2.00
2023-01-29T05:09:52.014Z,-2.00
2023-01-29T05:12:20.340Z,-2.00
2023-01-29T05:14:48.993Z,-2.00
2023-01-29T05:17:17.905Z,-2.00
2023-01-29T05:19:47.557Z,-2.00
2023-01-29T05:22:17.898Z,-2.00
2023-01-29T05:24:46.662Z,-2.00
2023-01-29T05:27:35.003Z,-2.00
2023-01-29T05:30:03.292Z,-2.00
2023-01-29T05:32:31.591Z,-2.10
2023-01-29T05:35:01.282Z,-2.00
2023-01-29T05:37:29.563Z,-2.00
2023-01-29T05:39:57.840Z,-2.00
2023-01-29T05:42:26.107Z,-2.00
2023-01-29T05:44:54.554Z,-2.00
2023-01-29T05:47:22.827Z,-2.00
2023-01-29T05:49:51.119Z,-2.00
2023-01-29T05:52:20.754Z,-2.00
2023-01-29T05:54:49.143Z,-1.90
2023-01-29T05:57:17.439Z,-1.90
2023-01-29T05:59:45.696Z,-1.90
2023-01-29T06:02:13.929Z,-1.90
2023-01-29T06:04:42.156Z,-1.80
2023-01-29T06:07:10.430Z,-1.80
2023-01-29T06:09:40.097Z,-1.80
2023-01-29T06:12:08.528Z,-1.80
2023-01-29T06:14:36.769Z,-1.90
2023-01-29T06:17:04.995Z,-1.80
2023-01-29T06:19:33.391Z,-1.80
2023-01-29T06:22:01.625Z,-1.80
2023-01-29T06:24:29.884Z,-1.80
2023-01-29T06:26:59.598Z,-1.80
2023-01-29T06:29:27.848Z,-1.80
2023-01-29T06:31:56.176Z,-1.80
2023-01-29T06:34:24.441Z,-1.80
2023-01-29T06:36:52.679Z,-1.80
2023-01-29T06:39:20.926Z,-1.80
2023-01-29T06:41:49.186Z,-1.80
2023-01-29T06:44:18.806Z,-1.80
2023-01-29T06:46:47.122Z,-1.70
2023-01-29T06:49:15.432Z,-1.70
2023-01-29T06:51:43.670Z,-1.70
2023-01-29T06:54:11.958Z,-1.70
2023-01-29T06:56:40.216Z,-1.70
2023-01-29T06:59:08.528Z,-1.70
2023-01-29T07:01:41.202Z,-1.60
2023-01-29T07:04:09.714Z,-1.70
2023-01-29T07:06:38.008Z,-1.70
2023-01-29T07:09:06.502Z,-1.80
2023-01-29T07:11:37.776Z,-1.80
2023-01-29T07:14:06.036Z,-1.80
2023-01-29T07:16:34.506Z,-1.80
2023-01-29T07:19:04.279Z,-1.90
2023-01-29T07:21:32.523Z,-1.80
2023-01-29T07:24:00.863Z,-1.80
2023-01-29T07:26:29.200Z,-1.90
2023-01-29T07:28:57.456Z,-1.90
2023-01-29T07:31:25.878Z,-1.90
2023-01-29T07:33:54.167Z,-2.00
2023-01-29T07:36:24.238Z,-2.00
2023-01-29T07:38:52.519Z,-1.90
2023-01-29T07:41:20.896Z,-1.90
2023-01-29T07:43:49.140Z,-1.90
2023-01-29T07:46:17.430Z,-1.80
2023-01-29T07:48:45.761Z,-1.80
2023-01-29T07:51:14.048Z,-1.90
2023-01-29T07:53:44.509Z,-1.80
2023-01-29T07:56:12.879Z,-1.80
2023-01-29T07:58:41.136Z,-1.80
2023-01-29T08:01:09.817Z,-1.70
2023-01-29T08:03:38.311Z,-1.70
2023-01-29T08:06:06.988Z,-1.80
2023-01-29T08:08:35.310Z,-1.80
2023-01-29T08:11:05.722Z,-1.80
2023-01-29T08:13:34.045Z,-1.80
2023-01-29T08:16:02.491Z,-1.80
2023-01-29T08:18:31.638Z,-1.80
2023-01-29T08:21:02.895Z,-1.80
2023-01-29T08:23:31.263Z,-1.80
2023-01-29T08:25:59.714Z,-1.80
2023-01-29T08:28:29.425Z,-1.90
2023-01-29T08:30:57.736Z,-1.80
2023-01-29T08:33:38.647Z,-1.70
2023-01-29T08:36:08.643Z,-1.80
2023-01-29T08:38:36.929Z,-1.80
2023-01-29T08:41:05.343Z,-1.80
2023-01-29T08:43:36.959Z,-1.80
2023-01-29T08:46:05.657Z,-1.80
2023-01-29T08:48:33.944Z,-1.80
2023-01-29T08:51:02.667Z,-1.70
2023-01-29T08:53:30.981Z,-1.70
2023-01-29T08:55:59.250Z,-1.60
2023-01-29T08:58:27.564Z,-1.60
2023-01-29T09:00:57.291Z,-1.60
2023-01-29T09:03:25.586Z,-1.50
2023-01-29T09:05:53.883Z,-1.50
2023-01-29T09:08:22.144Z,-1.40
2023-01-29T09:10:50.481Z,-1.40
2023-01-29T09:13:18.737Z,-1.50
2023-01-29T09:15:46.979Z,-1.40
2023-01-29T09:18:16.630Z,-1.30
2023-01-29T09:20:44.851Z,-1.20
2023-01-29T09:23:13.257Z,-1.20
2023-01-29T09:25:43.633Z,-1.30
2023-01-29T09:28:11.882Z,-1.30
2023-01-29T09:30:40.245Z,-1.30
2023-01-29T09:33:08.751Z,-1.30
2023-01-29T09:35:38.419Z,-1.30
2023-01-29T09:38:06.687Z,-1.30
2023-01-29T09:40:37.176Z,-1.20
2023-01-29T09:43:07.758Z,-1.30
2023-01-29T09:45:36.067Z,-1.30
2023-01-29T09:48:05.834Z,-1.30
2023-01-29T09:50:36.356Z,-1.50
2023-01-29T09:53:10.079Z,-1.50
2023-01-29T09:55:40.655Z,-1.40
2023-01-29T09:58:13.477Z,-1.40
2023-01-29T10:00:45.097Z,-1.30
2023-01-29T10:03:22.234Z,-1.30
2023-01-29T10:06:22.001Z,-1.20
2023-01-29T10:09:09.227Z,-1.30
2023-01-29T10:11:43.351Z,-1.40
2023-01-29T10:14:16.530Z,-1.30
2023-01-29T10:16:51.201Z,-1.30
2023-01-29T10:19:47.722Z,-1.30
2023-01-29T10:22:29.945Z,-1.30
2023-01-29T10:25:00.918Z,-1.20
2023-01-29T10:27:32.175Z,-1.20
2023-01-29T10:30:00.417Z,-1.10
2023-01-29T10:32:38.836Z,-1.20
2023-01-29T10:35:14.422Z,-1.20
2023-01-29T10:37:44.073Z,-1.20
2023-01-29T10:40:22.458Z,-1.10
2023-01-29T10:42:54.328Z,-1.20
2023-01-29T10:45:27.339Z,-1.10
2023-01-29T10:48:33.865Z,-1.20
2023-01-29T10:51:03.390Z,-1.20
2023-01-29T10:53:52.122Z,-1.20
2023-01-29T10:56:40.357Z,-1.10
2023-01-29T10:59:10.858Z,-1.10
2023-01-29T11:01:39.197Z,-1.10
2023-01-29T11:04:07.967Z,-1.10
2023-01-29T11:06:36.948Z,-1.00
2023-01-29T11:09:08.368Z,-1.00
2023-01-29T11:11:40.820Z,-0.90
2023-01-29T11:14:11.797Z,-1.00
2023-01-29T11:16:42.649Z,-1.00
2023-01-29T11:19:11.127Z,-0.90
2023-01-29T11:21:52.631Z,-0.90
2023-01-29T11:24:20.910Z,-0.90
2023-01-29T11:26:51.274Z,-0.90
2023-01-29T11:29:40.502Z,-0.80
2023-01-29T11:32:09.691Z,-0.80
2023-01-29T11:34:39.439Z,-0.80
2023-01-29T11:37:21.714Z,-0.80
2023-01-29T11:39:50.698Z,-0.80
2023-01-29T11:42:22.614Z,-0.80
2023-01-29T11:44:50.978Z,-0.80
2023-01-29T11:47:20.443Z,-0.80
2023-01-29T11:49:50.030Z,-0.80
2023-01-29T11:52:19.367Z,-0.90
2023-01-29T11:54:49.579Z,-1.00
2023-01-29T11:57:25.336Z,-0.90
2023-01-29T11:59:53.731Z,-0.90
2023-01-29T12:02:28.202Z,-0.90
2023-01-29T12:04:56.543Z,-0.90
2023-01-29T12:07:24.788Z,-0.90
2023-01-29T12:09:54.901Z,-0.80
2023-01-29T12:12:36.617Z,-0.90
2023-01-29T12:15:06.924Z,-0.80
2023-01-29T12:17:36.560Z,-0.70
2023-01-29T12:20:08.044Z,-0.70
2023-01-29T12:22:41.048Z,-0.70
2023-01-29T12:25:10.978Z,-0.70
2023-01-29T12:27:43.166Z,-0.70
2023-01-29T12:30:14.172Z,-0.70
2023-01-29T12:32:45.730Z,-0.70
2023-01-29T12:35:16.348Z,-0.60
2023-01-29T12:37:49.916Z,-0.70
2023-01-29T12:40:19.194Z,-0.70
2023-01-29T12:42:50.832Z,-0.60
2023-01-29T12:45:19.817Z,-0.60
2023-01-29T12:47:49.588Z,-0.50
2023-01-29T12:50:20.779Z,-0.50
2023-01-29T12:52:50.123Z,-0.60
2023-01-29T12:55:19.664Z,-0.60
2023-01-29T12:57:52.017Z,-0.50
2023-01-29T13:00:23.084Z,-0.50
2023-01-29T13:02:55.111Z,-0.50
2023-01-29T13:05:24.792Z,-0.50
2023-01-29T13:07:55.659Z,-0.40
2023-01-29T13:10:26.768Z,-0.40
2023-01-29T13:12:59.016Z,-0.40
2023-01-29T13:15:30.100Z,-0.40
2023-01-29T13:18:00.427Z,-0.40
2023-01-29T13:20:30.523Z,-0.40
2023-01-29T13:23:00.657Z,-0.40
2023-01-29T13:25:28.980Z,-0.30
2023-01-29T13:27:58.650Z,-0.20
2023-01-29T13:30:31.050Z,-0.30
2023-01-29T13:33:09.705Z,-0.30
2023-01-29T13:35:39.501Z,-0.30
2023-01-29T13:38:07.768Z,-0.30
2023-01-29T13:40:36.014Z,-0.30
2023-01-29T13:43:06.989Z,-0.30
2023-01-29T13:45:36.858Z,-0.30
2023-01-29T13:48:12.367Z,-0.30
2023-01-29T13:50:41.236Z,-0.30
2023-01-29T13:53:09.925Z,-0.30
2023-01-29T13:55:39.156Z,-0.20
2023-01-29T13:58:08.870Z,-0.30
2023-01-29T14:01:01.553Z,-0.40
2023-01-29T14:04:10.130Z,-0.30
2023-01-29T14:06:47.625Z,-0.40
2023-01-29T14:09:55.827Z,-0.30
2023-01-29T14:12:45.086Z,-0.40
2023-01-29T14:15:25.842Z,-0.30
2023-01-29T14:18:20.768Z,-0.40
2023-01-29T14:21:00.049Z,-0.40
2023-01-29T14:23:37.806Z,-0.40
2023-01-29T14:26:06.746Z,-0.50
2023-01-29T14:28:35.388Z,-0.50
2023-01-29T14:31:05.408Z,-0.50
2023-01-29T14:33:36.758Z,-0.50
2023-01-29T14:36:06.419Z,-0.40
2023-01-29T14:38:34.680Z,-0.40
2023-01-29T14:41:09.727Z,-0.40
2023-01-29T14:43:37.943Z,-0.40
2023-01-29T14:46:44.517Z,-0.40
2023-01-29T14:49:12.962Z,-0.50
2023-01-29T14:51:43.861Z,-0.50
2023-01-29T14:54:22.413Z,-0.50
2023-01-29T14:56:55.931Z,-0.60
2023-01-29T14:59:25.239Z,-0.60
2023-01-29T15:01:56.092Z,-0.70
2023-01-29T15:04:25.686Z,-0.70
2023-01-29T15:06:56.410Z,-0.70
2023-01-29T15:09:36.465Z,-0.80
2023-01-29T15:12:07.401Z,-0.80
2023-01-29T15:14:36.919Z,-0.80
2023-01-29T15:17:24.290Z,-0.80
2023-01-29T15:19:53.153Z,-0.90
2023-01-29T15:22:21.955Z,-0.90
2023-01-29T15:25:03.950Z,-0.90
2023-01-29T15:27:32.309Z,-0.90
2023-01-29T15:30:01.436Z,-0.90
2023-01-29T15:32:33.760Z,-0.90
2023-01-29T15:35:02.775Z,-1.00
2023-01-29T15:37:33.117Z,-1.00
2023-01-29T15:40:01.551Z,-1.00
2023-01-29T15:42:30.453Z,-1.00
2023-01-29T15:44:58.689Z,-1.00
2023-01-29T15:47:29.057Z,-0.90
2023-01-29T15:49:58.770Z,-0.90
2023-01-29T15:52:28.899Z,-0.90
2023-01-29T15:54:57.524Z,-0.90
2023-01-29T15:57:26.860Z,-0.90
2023-01-29T15:59:55.551Z,-1.00
2023-01-29T16:02:30.999Z,-1.00
2023-01-29T16:05:00.683Z,-1.00
2023-01-29T16:07:28.998Z,-1.00
2023-01-29T16:09:57.287Z,-1.00
2023-01-29T16:12:25.564Z,-1.00
2023-01-29T16:14:53.839Z,-1.00
2023-01-29T16:17:26.241Z,-1.00
2023-01-29T16:19:58.256Z,-1.00
2023-01-29T16:22:28.285Z,-1.00
2023-01-29T16:24:56.508Z,-1.00
2023-01-29T16:27:24.843Z,-1.00
2023-01-29T16:29:53.070Z,-1.00
2023-01-29T16:32:21.657Z,-1.00
2023-01-29T16:34:49.929Z,-1.10
2023-01-29T16:37:21.383Z,-1.10
2023-01-29T16:39:52.461Z,-1.10
2023-01-29T16:42:27.898Z,-1.10
2023-01-29T16:45:00.583Z,-1.10
2023-01-29T16:47:30.989Z,-1.10
2023-01-29T16:50:00.765Z,-1.20
2023-01-29T16:52:30.266Z,-1.20
2023-01-29T16:55:21.583Z,-1.20
2023-01-29T16:57:52.627Z,-1.20
2023-01-29T17:00:24.303Z,-1.20
2023-01-29T17:02:53.876Z,-1.20
2023-01-29T17:05:24.353Z,-1.20
2023-01-29T17:07:52.708Z,-1.20
2023-01-29T17:10:22.630Z,-1.20
2023-01-29T17:12:54.995Z,-1.20
2023-01-29T17:15:32.804Z,-1.20
2023-01-29T17:18:01.118Z,-1.20
2023-01-29T17:20:30.488Z,-1.20
2023-01-29T17:22:58.775Z,-1.20
2023-01-29T17:25:28.445Z,-1.20
2023-01-29T17:27:56.777Z,-1.10
2023-01-29T17:30:26.488Z,-1.20
2023-01-29T17:32:54.881Z,-1.20
2023-01-29T17:35:23.225Z,-1.20
2023-01-29T17:37:51.580Z,-1.10
2023-01-29T17:40:40.166Z,-1.10
2023-01-29T17:43:11.770Z,-1.10
2023-01-29T17:45:40.370Z,-1.20
2023-01-29T17:48:13.380Z,-1.20
2023-01-29T17:50:41.724Z,-1.10
2023-01-29T17:53:09.995Z,-1.10
2023-01-29T17:55:39.719Z,-1.20
2023-01-29T17:58:08.001Z,-1.20
2023-01-29T18:00:36.540Z,-1.20
2023-01-29T18:03:04.893Z,-1.20
2023-01-29T18:05:33.147Z,-1.20
2023-01-29T18:08:01.542Z,-1.20
2023-01-29T18:10:30.250Z,-1.30
2023-01-29T18:12:59.944Z,-1.20
2023-01-29T18:15:28.284Z,-1.20
2023-01-29T18:17:57.531Z,-1.20
2023-01-29T18:20:26.063Z,-1.20
2023-01-29T18:22:54.347Z,-1.20
2023-01-29T18:25:24.763Z,-1.20
2023-01-29T18:27:53.843Z,-1.20
2023-01-29T18:30:23.699Z,-1.20
2023-01-29T18:32:53.332Z,-1.20
2023-01-29T18:35:21.680Z,-1.20
2023-01-29T18:37:49.949Z,-1.20
2023-01-29T18:40:18.346Z,-1.20
2023-01-29T18:42:47.149Z,-1.20
2023-01-29T18:45:16.117Z,-1.20
2023-01-29T18:47:46.069Z,-1.20
2023-01-29T18:50:14.417Z,-1.20
2023-01-29T18:52:42.791Z,-1.20
2023-01-29T18:55:11.385Z,-1.20
2023-01-29T18:58:25.074Z,-1.20
2023-01-29T19:00:28.805Z,-1.20
2023-01-29T19:02:58.481Z,-1.20
2023-01-29T19:05:26.742Z,-1.30
2023-01-29T19:07:55.261Z,-1.20
2023-01-29T19:10:23.719Z,-1.30
2023-01-29T19:12:52.041Z,-1.30
2023-01-29T19:15:22.080Z,-1.30
2023-01-29T19:17:50.604Z,-1.30
2023-01-29T19:20:20.510Z,-1.30
2023-01-29T19:22:48.808Z,-1.30
2023-01-29T19:25:17.712Z,-1.30
2023-01-29T19:27:46.446Z,-1.30
2023-01-29T19:30:15.179Z,-1.30
2023-01-29T19:32:43.480Z,-1.30
2023-01-29T19:35:11.848Z,-1.30
2023-01-29T19:37:41.505Z,-1.30
2023-01-29T19:40:11.073Z,-1.30
2023-01-29T19:42:39.907Z,-1.40
2023-01-29T19:45:09.941Z,-1.30
2023-01-29T19:47:40.262Z,-1.40
2023-01-29T19:50:09.183Z,-1.40
2023-01-29T19:52:52.792Z,-1.40
2023-01-29T19:55:22.580Z,-1.40
2023-01-29T19:57:53.314Z,-1.40
2023-01-29T20:00:22.112Z,-1.40
2023-01-29T20:02:50.419Z,-1.40
2023-01-29T20:05:20.404Z,-1.50
2023-01-29T20:07:50.044Z,-1.50
2023-01-29T20:10:18.841Z,-1.50
2023-01-29T20:12:48.908Z,-1.50
2023-01-29T20:15:17.285Z,-1.50
2023-01-29T20:17:46.091Z,-1.50
2023-01-29T20:20:16.679Z,-1.60
2023-01-29T20:22:45.224Z,-1.50
2023-01-29T20:25:14.691Z,-1.60
2023-01-29T20:27:43.327Z,-1.60
2023-01-29T20:30:14.071Z,-1.60
2023-01-29T20:32:42.463Z,-1.60
2023-01-29T20:35:11.432Z,-1.60
2023-01-29T20:37:39.806Z,-1.60
2023-01-29T20:40:09.066Z,-1.60
2023-01-29T20:42:37.352Z,-1.60
2023-01-29T20:45:06.406Z,-1.50
2023-01-29T20:47:36.133Z,-1.60
2023-01-29T20:50:08.692Z,-1.60
2023-01-29T20:52:37.060Z,-1.60
2023-01-29T20:55:05.932Z,-1.60
2023-01-29T20:57:34.308Z,-1.60
2023-01-29T21:00:02.572Z,-1.60
2023-01-29T21:02:31.008Z,-1.60
2023-01-29T21:05:00.686Z,-1.60
2023-01-29T21:07:29.183Z,-1.50
2023-01-29T21:09:57.499Z,-1.50
2023-01-29T21:12:25.894Z,-1.50
2023-01-29T21:14:54.203Z,-1.60
2023-01-29T21:17:22.500Z,-1.60
2023-01-29T21:19:50.985Z,-1.60
2023-01-29T21:22:20.814Z,-1.60
2023-01-29T21:24:49.091Z,-1.60
2023-01-29T21:27:17.370Z,-1.60
2023-01-29T21:29:45.727Z,-1.60
2023-01-29T21:32:14.442Z,-1.70
2023-01-29T21:34:42.688Z,-1.70
2023-01-29T21:37:10.950Z,-1.70
2023-01-29T21:39:40.661Z,-1.70
2023-01-29T21:42:26.113Z,-1.70
2023-01-29T21:44:54.376Z,-1.70
2023-01-29T21:47:22.679Z,-1.70
2023-01-29T21:49:51.023Z,-1.70
2023-01-29T21:52:19.281Z,-1.70
2023-01-29T21:54:49.175Z,-1.70
2023-01-29T21:57:17.824Z,-1.70
2023-01-29T21:59:51.798Z,-1.70
2023-01-29T22:02:21.628Z,-1.70
2023-01-29T22:04:50.329Z,-1.60
2023-01-29T22:07:18.693Z,-1.60
2023-01-29T22:09:48.354Z,-1.60
2023-01-29T22:12:16.930Z,-1.60
2023-01-29T22:14:46.125Z,-1.70
2023-01-29T22:17:14.454Z,-1.70
2023-01-29T22:19:42.719Z,-1.60
2023-01-29T22:22:14.623Z,-1.60
2023-01-29T22:24:44.789Z,-1.60
2023-01-29T22:27:14.616Z,-1.60
2023-01-29T22:29:42.980Z,-1.60
2023-01-29T22:32:11.529Z,-1.60
2023-01-29T22:34:39.853Z,-1.60
2023-01-29T22:37:08.261Z,-1.60
2023-01-29T22:39:36.510Z,-1.60
2023-01-29T22:42:04.856Z,-1.60
2023-01-29T22:44:34.565Z,-1.60
2023-01-29T22:47:02.974Z,-1.60
2023-01-29T22:49:31.548Z,-1.60
2023-01-29T22:52:11.878Z,-1.60
2023-01-29T22:54:40.387Z,-1.60
2023-01-29T22:57:10.181Z,-1.60
2023-01-29T22:59:39.934Z,-1.60
2023-01-29T23:02:08.245Z,-1.60
2023-01-29T23:04:36.633Z,-1.60
2023-01-29T23:07:05.154Z,-1.60
2023-01-29T23:09:33.368Z,-1.60
2023-01-29T23:12:01.909Z,-1.60
2023-01-29T23:14:30.203Z,-1.60
2023-01-29T23:16:59.823Z,-1.60
2023-01-29T23:19:28.180Z,-1.60
2023-01-29T23:21:56.492Z,-1.60
2023-01-29T23:24:24.859Z,-1.70
2023-01-29T23:27:07.027Z,-1.70
2023-01-29T23:29:35.254Z,-1.60
2023-01-29T23:32:04.979Z,-1.60
2023-01-29T23:34:33.244Z,-1.60
2023-01-29T23:37:01.569Z,-1.70
2023-01-29T23:39:29.834Z,-1.60
2023-01-29T23:41:58.193Z,-1.60
2023-01-29T23:44:26.413Z,-1.70
2023-01-29T23:46:54.770Z,-1.60
2023-01-29T23:49:24.510Z,-1.70
2023-01-29T23:51:52.837Z,-1.60
2023-01-29T23:54:21.110Z,-1.60
2023-01-29T23:56:49.452Z,-1.60
2023-01-29T23:59:17.707Z,-1.60
